Time,TemperatureF,DewpointF,PressureIn,WindDirection,WindDirectionDegrees,WindSpeedMPH,WindSpeedGustMPH,Humidity,HourlyPrecipIn,Conditions,Clouds,dailyrainin,SoftwareType,DateUTC
2013-06-13 00:15:00,64.8,62.1,29.48,East,90,4.2,-999.0,91,-99.99,,,0.07,Acu-Link.com,2013-06-13 04:15:00,
2013-06-13 00:30:00,63.9,61.2,29.48,SSE,157,4.2,-999.0,91,-99.99,,,0.09,Acu-Link.com,2013-06-13 04:30:00,
2013-06-13 00:45:00,63.7,61.0,29.49,South,180,0.0,-999.0,91,-99.99,,,0.10,Acu-Link.com,2013-06-13 04:45:00,
2013-06-13 01:00:00,63.5,60.8,29.52,South,180,1.7,-999.0,91,-99.99,,,0.12,Acu-Link.com,2013-06-13 05:00:00,
2013-06-13 01:16:00,63.3,60.6,29.49,NE,45,2.2,-999.0,91,-99.99,,,0.22,Acu-Link.com,2013-06-13 05:16:00,
2013-06-13 01:31:00,63.0,60.3,29.46,ENE,67,2.2,-999.0,91,-99.99,,,0.28,Acu-Link.com,2013-06-13 05:31:00,
2013-06-13 01:46:00,63.0,60.6,29.47,South,180,0.0,-999.0,92,-99.99,,,0.32,Acu-Link.com,2013-06-13 05:46:00,
2013-06-13 02:01:00,63.0,60.6,29.45,NE,45,1.7,-999.0,92,-99.99,,,0.35,Acu-Link.com,2013-06-13 06:01:00,
2013-06-13 02:16:00,63.0,60.6,29.44,NNE,22,0.0,-999.0,92,-99.99,,,0.40,Acu-Link.com,2013-06-13 06:16:00,
2013-06-13 02:32:00,63.0,60.6,29.42,NE,45,1.1,-999.0,92,-99.99,,,0.52,Acu-Link.com,2013-06-13 06:32:00,
2013-06-13 02:47:00,63.0,60.6,29.42,East,90,2.2,-999.0,92,-99.99,,,0.63,Acu-Link.com,2013-06-13 06:47:00,
2013-06-13 03:02:00,62.4,60.0,29.40,ENE,67,2.7,-999.0,92,-99.99,,,0.71,Acu-Link.com,2013-06-13 07:02:00,
2013-06-13 03:17:00,62.2,59.8,29.40,ENE,67,2.2,-999.0,92,-99.99,,,0.77,Acu-Link.com,2013-06-13 07:17:00,
2013-06-13 03:33:00,62.2,59.8,29.41,NE,45,0.0,-999.0,92,-99.99,,,0.85,Acu-Link.com,2013-06-13 07:33:00,
2013-06-13 03:48:00,62.2,59.8,29.41,NE,45,2.7,-999.0,92,-99.99,,,0.89,Acu-Link.com,2013-06-13 07:48:00,
2013-06-13 04:03:00,62.2,59.8,29.40,NE,45,2.7,-999.0,92,-99.99,,,0.92,Acu-Link.com,2013-06-13 08:03:00,
2013-06-13 04:18:00,62.2,59.8,29.40,East,90,2.7,-999.0,92,-99.99,,,0.94,Acu-Link.com,2013-06-13 08:18:00,
2013-06-13 04:33:00,62.2,59.8,29.40,NNE,22,3.2,-999.0,92,-99.99,,,0.96,Acu-Link.com,2013-06-13 08:33:00,
2013-06-13 04:49:00,62.2,59.8,29.40,NE,45,3.7,-999.0,92,-99.99,,,1.01,Acu-Link.com,2013-06-13 08:49:00,
2013-06-13 05:04:00,62.4,60.0,29.40,NNE,22,4.7,-999.0,92,-99.99,,,1.04,Acu-Link.com,2013-06-13 09:04:00,
2013-06-13 05:19:00,62.6,60.2,29.41,NNE,22,4.7,-999.0,92,-99.99,,,1.06,Acu-Link.com,2013-06-13 09:19:00,
2013-06-13 05:34:00,62.6,60.2,29.42,North,0,3.2,-999.0,92,-99.99,,,1.08,Acu-Link.com,2013-06-13 09:34:00,
2013-06-13 05:49:00,61.7,59.3,29.43,NNE,22,5.3,-999.0,92,-99.99,,,1.11,Acu-Link.com,2013-06-13 09:49:00,
2013-06-13 06:04:00,60.8,57.5,29.43,NE,45,3.7,-999.0,89,-99.99,,,1.12,Acu-Link.com,2013-06-13 10:04:00,
2013-06-13 06:20:00,60.3,56.1,29.44,NW,315,2.2,-999.0,86,-99.99,,,1.12,Acu-Link.com,2013-06-13 10:20:00,
2013-06-13 06:35:00,59.7,55.2,29.44,NNE,22,8.3,-999.0,85,-99.99,,,1.12,Acu-Link.com,2013-06-13 10:35:00,
2013-06-13 06:50:00,60.1,56.8,29.46,NE,45,2.7,-999.0,89,-99.99,,,1.13,Acu-Link.com,2013-06-13 10:50:00,
2013-06-13 07:06:00,60.6,57.6,29.47,NE,45,3.2,-999.0,90,-99.99,,,1.13,Acu-Link.com,2013-06-13 11:06:00,
2013-06-13 07:21:00,60.8,57.8,29.48,NE,45,3.7,-999.0,90,-99.99,,,1.13,Acu-Link.com,2013-06-13 11:21:00,
2013-06-13 07:36:00,60.8,57.2,29.48,NE,45,4.2,-999.0,88,-99.99,,,1.13,Acu-Link.com,2013-06-13 11:36:00,
2013-06-13 07:51:00,60.3,56.4,29.50,NE,45,5.3,-999.0,87,-99.99,,,1.15,Acu-Link.com,2013-06-13 11:51:00,
2013-06-13 08:07:00,60.1,56.5,29.50,NNE,22,1.1,-999.0,88,-99.99,,,1.17,Acu-Link.com,2013-06-13 12:07:00,
2013-06-13 08:22:00,60.3,57.0,29.50,NNW,337,3.2,-999.0,89,-99.99,,,1.18,Acu-Link.com,2013-06-13 12:22:00,
2013-06-13 08:37:00,60.6,57.3,29.50,NNW,337,1.1,-999.0,89,-99.99,,,1.18,Acu-Link.com,2013-06-13 12:37:00,
2013-06-13 08:52:00,61.0,57.7,29.52,NW,315,3.7,-999.0,89,-99.99,,,1.18,Acu-Link.com,2013-06-13 12:52:00,
2013-06-13 09:07:00,61.7,58.1,29.51,NNW,337,2.2,-999.0,88,-99.99,,,1.18,Acu-Link.com,2013-06-13 13:07:00,
2013-06-13 09:23:00,62.6,58.3,29.52,NW,315,2.2,-999.0,86,-99.99,,,1.18,Acu-Link.com,2013-06-13 13:23:00,
2013-06-13 09:38:00,64.0,59.1,29.53,NNE,22,2.2,-999.0,84,-99.99,,,1.18,Acu-Link.com,2013-06-13 13:38:00,
2013-06-13 09:53:00,64.9,57.9,29.53,NNW,337,3.7,-999.0,78,-99.99,,,1.18,Acu-Link.com,2013-06-13 13:53:00,
2013-06-13 10:08:00,64.8,57.4,29.53,NNW,337,1.7,-999.0,77,-99.99,,,1.18,Acu-Link.com,2013-06-13 14:08:00,
2013-06-13 10:24:00,67.5,58.1,29.53,NW,315,1.7,-999.0,72,-99.99,,,1.18,Acu-Link.com,2013-06-13 14:24:00,
2013-06-13 10:39:00,68.4,57.4,29.53,NE,45,10.4,-999.0,68,-99.99,,,1.18,Acu-Link.com,2013-06-13 14:39:00,
2013-06-13 10:54:00,68.5,56.3,29.52,NNE,22,8.3,-999.0,65,-99.99,,,1.18,Acu-Link.com,2013-06-13 14:54:00,
2013-06-13 11:09:00,69.6,58.1,29.53,NE,45,4.2,-999.0,67,-99.99,,,1.18,Acu-Link.com,2013-06-13 15:09:00,
2013-06-13 11:25:00,70.5,55.9,29.54,NNE,22,7.8,-999.0,60,-99.99,,,1.18,Acu-Link.com,2013-06-13 15:25:00,
2013-06-13 11:40:00,71.2,57.1,29.55,NNE,22,4.7,-999.0,61,-99.99,,,1.18,Acu-Link.com,2013-06-13 15:40:00,
2013-06-13 11:55:00,72.7,56.6,29.55,NW,315,7.3,-999.0,57,-99.99,,,1.18,Acu-Link.com,2013-06-13 15:55:00,
2013-06-13 12:10:00,72.1,56.0,29.56,NNE,22,5.8,-999.0,57,-99.99,,,1.18,Acu-Link.com,2013-06-13 16:10:00,
2013-06-13 12:25:00,73.4,56.7,29.56,NNE,22,3.7,-999.0,56,-99.99,,,1.18,Acu-Link.com,2013-06-13 16:25:00,
2013-06-13 12:41:00,73.0,55.4,29.56,NNE,22,9.9,-999.0,54,-99.99,,,1.18,Acu-Link.com,2013-06-13 16:41:00,
2013-06-13 12:56:00,73.4,54.2,29.57,ESE,112,5.3,-999.0,51,-99.99,,,1.18,Acu-Link.com,2013-06-13 16:56:00,
2013-06-13 13:11:00,75.0,54.0,29.57,NE,45,5.8,-999.0,48,-99.99,,,1.18,Acu-Link.com,2013-06-13 17:11:00,
2013-06-13 13:27:00,75.2,54.7,29.56,NNW,337,2.2,-999.0,49,-99.99,,,1.18,Acu-Link.com,2013-06-13 17:27:00,
2013-06-13 13:42:00,75.4,57.1,29.57,East,90,6.8,-999.0,53,-99.99,,,1.18,Acu-Link.com,2013-06-13 17:42:00,
2013-06-13 13:57:00,74.8,57.0,29.59,NE,45,2.7,-999.0,54,-99.99,,,1.18,Acu-Link.com,2013-06-13 17:57:00,
2013-06-13 14:12:00,75.7,56.3,29.59,NE,45,4.2,-999.0,51,-99.99,,,1.18,Acu-Link.com,2013-06-13 18:12:00,
2013-06-13 14:28:00,75.6,55.6,29.59,ENE,67,8.3,-999.0,50,-99.99,,,1.18,Acu-Link.com,2013-06-13 18:28:00,
2013-06-13 14:43:00,75.2,55.8,29.59,NNE,22,5.8,-999.0,51,-99.99,,,1.18,Acu-Link.com,2013-06-13 18:43:00,
2013-06-13 14:58:00,75.0,55.6,29.61,NNE,22,4.2,-999.0,51,-99.99,,,1.18,Acu-Link.com,2013-06-13 18:58:00,
2013-06-13 15:13:00,75.4,56.0,29.61,ESE,112,8.9,-999.0,51,-99.99,,,1.18,Acu-Link.com,2013-06-13 19:13:00,
2013-06-13 15:28:00,74.7,55.9,29.61,NNE,22,4.7,-999.0,52,-99.99,,,1.18,Acu-Link.com,2013-06-13 19:28:00,
2013-06-13 15:43:00,74.5,56.7,29.62,NNE,22,4.7,-999.0,54,-99.99,,,1.18,Acu-Link.com,2013-06-13 19:43:00,
2013-06-13 15:58:00,75.4,56.0,29.61,NNE,22,7.3,-999.0,51,-99.99,,,1.18,Acu-Link.com,2013-06-13 19:58:00,
2013-06-13 16:13:00,75.6,56.2,29.62,NNE,22,6.3,-999.0,51,-99.99,,,1.18,Acu-Link.com,2013-06-13 20:13:00,
2013-06-13 16:29:00,75.9,55.4,29.61,NNE,22,8.9,-999.0,49,-99.99,,,1.18,Acu-Link.com,2013-06-13 20:29:00,
2013-06-13 16:44:00,74.8,55.4,29.62,NNE,22,5.8,-999.0,51,-99.99,,,1.18,Acu-Link.com,2013-06-13 20:44:00,
2013-06-13 16:59:00,75.7,55.2,29.62,NE,45,7.8,-999.0,49,-99.99,,,1.18,Acu-Link.com,2013-06-13 20:59:00,
2013-06-13 17:14:00,75.0,55.1,29.62,ESE,112,6.8,-999.0,50,-99.99,,,1.18,Acu-Link.com,2013-06-13 21:14:00,
2013-06-13 17:29:00,73.8,54.0,29.63,East,90,7.3,-999.0,50,-99.99,,,1.18,Acu-Link.com,2013-06-13 21:29:00,
2013-06-13 17:44:00,74.8,54.9,29.63,NE,45,4.7,-999.0,50,-99.99,,,1.18,Acu-Link.com,2013-06-13 21:44:00,
2013-06-13 17:59:00,74.3,54.4,29.64,NNE,22,6.3,-999.0,50,-99.99,,,1.18,Acu-Link.com,2013-06-13 21:59:00,
2013-06-13 18:14:00,75.0,53.4,29.64,NNE,22,7.8,-999.0,47,-99.99,,,1.18,Acu-Link.com,2013-06-13 22:14:00,
2013-06-13 18:30:00,76.5,52.9,29.64,NNE,22,4.2,-999.0,44,-99.99,,,1.18,Acu-Link.com,2013-06-13 22:30:00,
2013-06-13 18:45:00,74.8,52.6,29.65,NW,315,7.3,-999.0,46,-99.99,,,1.18,Acu-Link.com,2013-06-13 22:45:00,
2013-06-13 19:00:00,74.8,52.6,29.65,NE,45,6.3,-999.0,46,-99.99,,,1.18,Acu-Link.com,2013-06-13 23:00:00,
2013-06-13 19:16:00,74.5,53.5,29.65,ENE,67,4.7,-999.0,48,-99.99,,,1.18,Acu-Link.com,2013-06-13 23:16:00,
2013-06-13 19:31:00,73.8,53.4,29.66,NNE,22,4.7,-999.0,49,-99.99,,,1.18,Acu-Link.com,2013-06-13 23:31:00,
2013-06-13 19:46:00,73.6,54.3,29.67,NNE,22,1.7,-999.0,51,-99.99,,,1.18,Acu-Link.com,2013-06-13 23:46:00,
2013-06-13 20:01:00,73.0,54.3,29.67,NNE,22,4.7,-999.0,52,-99.99,,,1.18,Acu-Link.com,2013-06-14 00:01:00,
2013-06-13 20:17:00,71.2,53.7,29.67,NNE,22,4.7,-999.0,54,-99.99,,,1.18,Acu-Link.com,2013-06-14 00:17:00,
2013-06-13 20:32:00,70.2,53.8,29.68,NNE,22,3.7,-999.0,56,-99.99,,,1.18,Acu-Link.com,2013-06-14 00:32:00,
2013-06-13 20:47:00,69.1,53.7,29.68,NE,45,3.2,-999.0,58,-99.99,,,1.18,Acu-Link.com,2013-06-14 00:47:00,
2013-06-13 21:03:00,68.2,53.3,29.69,NNW,337,2.7,-999.0,59,-99.99,,,1.18,Acu-Link.com,2013-06-14 01:03:00,
2013-06-13 21:18:00,67.6,52.8,29.69,NNE,22,3.7,-999.0,59,-99.99,,,1.18,Acu-Link.com,2013-06-14 01:18:00,
2013-06-13 21:33:00,67.1,52.3,29.69,NNE,22,2.7,-999.0,59,-99.99,,,1.18,Acu-Link.com,2013-06-14 01:33:00,
2013-06-13 21:49:00,66.2,52.3,29.70,NNE,22,2.7,-999.0,61,-99.99,,,1.18,Acu-Link.com,2013-06-14 01:49:00,
2013-06-13 22:04:00,65.3,51.9,29.71,NNE,22,3.7,-999.0,62,-99.99,,,1.18,Acu-Link.com,2013-06-14 02:04:00,
2013-06-13 22:19:00,65.1,51.3,29.72,NNE,22,1.1,-999.0,61,-99.99,,,1.18,Acu-Link.com,2013-06-14 02:19:00,
2013-06-13 22:34:00,64.8,51.0,29.73,North,0,1.1,-999.0,61,-99.99,,,1.18,Acu-Link.com,2013-06-14 02:34:00,
2013-06-13 22:49:00,65.1,50.9,29.73,NE,45,6.8,-999.0,60,-99.99,,,1.18,Acu-Link.com,2013-06-14 02:49:00,
2013-06-13 23:05:00,65.1,51.3,29.73,NNE,22,4.2,-999.0,61,-99.99,,,1.18,Acu-Link.com,2013-06-14 03:05:00,
2013-06-13 23:20:00,64.6,50.8,29.73,NNW,337,1.1,-999.0,61,-99.99,,,1.18,Acu-Link.com,2013-06-14 03:20:00,
2013-06-13 23:35:00,63.9,51.1,29.74,WNW,292,1.7,-999.0,63,-99.99,,,1.18,Acu-Link.com,2013-06-14 03:35:00,
2013-06-13 23:51:00,63.1,51.1,29.74,NNE,22,1.7,-999.0,65,-99.99,,,1.18,Acu-Link.com,2013-06-14 03:51:00,